Terminal Aerodrome Forecast
Issued by NWS Cleveland, OH

Home | Current Version | Previous Version | Graphics & Text | Print | Product List | Glossary On
Versions: 1 2 3 4 5 6 7 8 9 10 11 12 13 14
000
FTUS41 KCLE 262322
TAFERI
TAF
KERI 262322Z 2700/2724 23011KT P6SM SCT030 BKN150
     FM270300 22012KT P6SM SCT040
     FM271500 23016G26KT P6SM SCT050=

USA.gov is the U.S. government's official web portal to all federal, state and local government web resources and services.